createdAt,value
2023-05-06T00:00:25.648Z,100.00
2023-05-06T00:05:30.914Z,100.00
2023-05-06T00:10:40.175Z,100.00
2023-05-06T00:15:45.403Z,100.00
2023-05-06T00:20:55.661Z,100.00
2023-05-06T00:26:03.589Z,100.00
2023-05-06T00:31:09.895Z,100.00
2023-05-06T00:36:15.063Z,100.00
2023-05-06T00:41:23.033Z,100.00
2023-05-06T00:46:31.668Z,100.00
2023-05-06T00:51:36.957Z,100.00
2023-05-06T00:56:45.022Z,100.00
2023-05-06T01:01:50.337Z,100.00
2023-05-06T01:07:05.385Z,100.00
2023-05-06T01:12:20.161Z,100.00
2023-05-06T01:17:29.290Z,100.00
2023-05-06T01:22:39.844Z,100.00
2023-05-06T01:27:47.946Z,100.00
2023-05-06T01:33:03.684Z,100.00
2023-05-06T01:38:18.408Z,100.00
2023-05-06T01:43:32.880Z,100.00
2023-05-06T01:48:40.596Z,100.00
2023-05-06T01:53:45.820Z,100.00
2023-05-06T01:58:53.713Z,100.00
2023-05-06T02:03:59.408Z,100.00
2023-05-06T02:09:05.875Z,100.00
2023-05-06T02:14:18.203Z,100.00
2023-05-06T02:19:26.626Z,100.00
2023-05-06T02:24:32.003Z,100.00
2023-05-06T02:29:41.139Z,100.00
2023-05-06T02:34:47.421Z,100.00
2023-05-06T02:39:52.537Z,100.00
2023-05-06T02:45:00.642Z,100.00
2023-05-06T02:50:06.591Z,100.00
2023-05-06T02:55:13.733Z,100.00
2023-05-06T03:00:22.197Z,100.00
2023-05-06T03:05:30.626Z,100.00
2023-05-06T03:10:36.851Z,100.00
2023-05-06T03:15:44.833Z,100.00
2023-05-06T03:20:51.813Z,100.00
2023-05-06T03:25:58.992Z,100.00
2023-05-06T03:31:07.632Z,100.00
2023-05-06T03:36:14.251Z,100.00
2023-05-06T03:41:22.303Z,100.00
2023-05-06T03:46:31.115Z,100.00
2023-05-06T03:51:36.400Z,100.00
2023-05-06T03:56:41.625Z,100.00
2023-05-06T04:01:49.368Z,100.00
2023-05-06T04:06:55.305Z,100.00
2023-05-06T04:12:02.904Z,100.00
2023-05-06T04:17:11.115Z,100.00
2023-05-06T04:22:16.521Z,100.00
2023-05-06T04:27:23.466Z,100.00
2023-05-06T04:32:31.406Z,100.00
2023-05-06T04:37:36.646Z,100.00
2023-05-06T04:42:47.557Z,100.00
2023-05-06T04:48:00.929Z,100.00
2023-05-06T04:53:06.274Z,100.00
2023-05-06T04:58:11.777Z,100.00
2023-05-06T05:03:20.154Z,100.00
2023-05-06T05:08:25.836Z,100.00
2023-05-06T05:13:33.949Z,100.00
2023-05-06T05:18:43.771Z,100.00
2023-05-06T05:23:56.601Z,100.00
2023-05-06T05:29:02.113Z,100.00
2023-05-06T05:34:10.377Z,100.00
2023-05-06T05:39:15.549Z,100.00
2023-05-06T05:44:31.667Z,100.00
2023-05-06T05:49:39.704Z,100.00
2023-05-06T05:54:47.594Z,100.00
2023-05-06T05:59:56.262Z,100.00
2023-05-06T06:05:06.306Z,100.00
2023-05-06T06:10:14.227Z,100.00
2023-05-06T06:15:21.670Z,100.00
2023-05-06T06:20:30.997Z,100.00
2023-05-06T06:25:44.516Z,100.00
2023-05-06T06:30:53.542Z,100.00
2023-05-06T06:36:01.682Z,100.00
2023-05-06T06:41:07.774Z,100.00
2023-05-06T06:46:13.049Z,100.00
2023-05-06T06:51:21.062Z,100.00
2023-05-06T06:56:26.268Z,100.00
2023-05-06T07:01:31.370Z,100.00
2023-05-06T07:06:39.738Z,100.00
2023-05-06T07:11:45.026Z,100.00
2023-05-06T07:16:53.624Z,100.00
2023-05-06T07:22:04.033Z,100.00
2023-05-06T07:27:09.473Z,100.00
2023-05-06T07:32:14.744Z,100.00
2023-05-06T07:37:22.471Z,100.00
2023-05-06T07:42:27.992Z,100.00
2023-05-06T07:47:34.803Z,100.00
2023-05-06T07:52:44.248Z,100.00
2023-05-06T07:57:53.740Z,100.00
2023-05-06T08:03:00.421Z,100.00
2023-05-06T08:08:09.882Z,100.00
2023-05-06T08:13:15.212Z,100.00
2023-05-06T08:18:22.956Z,100.00
2023-05-06T08:23:31.998Z,100.00
2023-05-06T08:28:37.232Z,100.00
2023-05-06T08:33:42.752Z,100.00
2023-05-06T08:38:53.968Z,100.00
2023-05-06T08:44:01.375Z,100.00
2023-05-06T08:49:09.951Z,100.00
2023-05-06T08:54:19.290Z,100.00
2023-05-06T08:59:27.616Z,100.00
2023-05-06T09:04:33.890Z,100.00
2023-05-06T09:09:42.219Z,100.00
2023-05-06T09:14:47.607Z,100.00
2023-05-06T09:19:56.635Z,100.00
2023-05-06T09:25:08.349Z,100.00
2023-05-06T09:30:16.044Z,100.00
2023-05-06T09:35:21.175Z,100.00
2023-05-06T09:40:30.406Z,100.00
2023-05-06T09:45:35.709Z,100.00
2023-05-06T09:50:42.789Z,100.00
2023-05-06T09:55:52.196Z,100.00
2023-05-06T10:00:58.680Z,100.00
2023-05-06T10:06:09.316Z,100.00
2023-05-06T10:11:20.572Z,100.00
2023-05-06T10:16:28.903Z,100.00
2023-05-06T10:21:39.601Z,100.00
2023-05-06T10:26:48.515Z,100.00
2023-05-06T10:31:58.423Z,100.00
2023-05-06T10:37:08.938Z,100.00
2023-05-06T10:42:20.470Z,100.00
2023-05-06T10:47:25.652Z,100.00
2023-05-06T10:52:47.219Z,100.00
2023-05-06T10:57:58.027Z,100.00
2023-05-06T11:03:08.677Z,100.00
2023-05-06T11:08:14.322Z,100.00
2023-05-06T11:13:28.491Z,100.00
2023-05-06T11:18:51.261Z,100.00
2023-05-06T11:24:12.650Z,100.00
2023-05-06T11:29:22.668Z,100.00
2023-05-06T11:34:30.430Z,100.00
2023-05-06T11:39:40.921Z,100.00
2023-05-06T11:44:49.022Z,100.00
2023-05-06T11:49:59.175Z,100.00
2023-05-06T11:55:04.395Z,100.00
2023-05-06T12:00:14.928Z,100.00
2023-05-06T12:05:20.475Z,100.00
2023-05-06T12:10:27.871Z,100.00
2023-05-06T12:15:37.227Z,100.00
2023-05-06T12:20:42.887Z,100.00
2023-05-06T12:25:50.391Z,100.00
2023-05-06T12:30:59.580Z,100.00
2023-05-06T12:36:10.196Z,100.00
2023-05-06T12:41:15.779Z,100.00
2023-05-06T12:46:26.130Z,100.00
2023-05-06T12:51:32.549Z,100.00
2023-05-06T12:56:40.355Z,100.00
2023-05-06T13:01:48.337Z,100.00
2023-05-06T13:06:55.905Z,100.00
2023-05-06T13:12:01.337Z,100.00
2023-05-06T13:17:09.248Z,100.00
2023-05-06T13:22:14.469Z,100.00
2023-05-06T13:27:19.796Z,100.00
2023-05-06T13:32:27.549Z,99.96
2023-05-06T13:37:32.728Z,100.00
2023-05-06T13:42:39.319Z,100.00
2023-05-06T13:47:49.628Z,97.60
2023-05-06T13:52:55.265Z,98.30
2023-05-06T13:58:01.206Z,98.52
2023-05-06T14:03:10.547Z,100.00
2023-05-06T14:08:15.833Z,99.94
2023-05-06T14:13:21.203Z,98.80
2023-05-06T14:18:33.869Z,99.72
2023-05-06T14:23:39.307Z,98.88
2023-05-06T14:28:44.373Z,97.83
2023-05-06T14:33:52.173Z,100.00
2023-05-06T14:38:57.232Z,100.00
2023-05-06T14:44:02.340Z,98.51
2023-05-06T14:49:12.617Z,97.88
2023-05-06T14:54:17.678Z,98.96
2023-05-06T14:59:23.137Z,100.00
2023-05-06T15:04:31.332Z,99.05
2023-05-06T15:09:37.391Z,97.09
2023-05-06T15:14:42.637Z,98.44
2023-05-06T15:19:50.824Z,97.37
2023-05-06T15:24:55.873Z,97.04
2023-05-06T15:30:04.385Z,98.77
2023-05-06T15:35:12.824Z,95.88
2023-05-06T15:40:18.308Z,96.83
2023-05-06T15:45:24.410Z,97.23
2023-05-06T15:50:36.292Z,98.25
2023-05-06T15:55:47.692Z,98.16
2023-05-06T16:00:59.780Z,96.30
2023-05-06T16:06:08.111Z,100.00
2023-05-06T16:11:13.405Z,99.74
2023-05-06T16:16:21.079Z,100.00
2023-05-06T16:21:29.048Z,100.00
2023-05-06T16:26:36.488Z,100.00
2023-05-06T16:31:41.764Z,100.00
2023-05-06T16:36:51.964Z,100.00
2023-05-06T16:41:58.206Z,100.00
2023-05-06T16:47:11.180Z,100.00
2023-05-06T16:52:20.643Z,100.00
2023-05-06T16:57:25.728Z,100.00
2023-05-06T17:02:32.091Z,100.00
2023-05-06T17:07:40.175Z,100.00
2023-05-06T17:12:45.384Z,100.00
2023-05-06T17:17:50.913Z,99.67
2023-05-06T17:22:58.839Z,100.00
2023-05-06T17:28:04.032Z,100.00
2023-05-06T17:33:10.504Z,100.00
2023-05-06T17:38:22.711Z,100.00
2023-05-06T17:43:29.136Z,100.00
2023-05-06T17:48:34.170Z,100.00
2023-05-06T17:53:42.433Z,100.00
2023-05-06T17:58:52.418Z,100.00
2023-05-06T18:03:58.176Z,100.00
2023-05-06T18:09:07.451Z,100.00
2023-05-06T18:14:12.782Z,100.00
2023-05-06T18:19:18.922Z,100.00
2023-05-06T18:24:28.198Z,100.00
2023-05-06T18:29:35.094Z,100.00
2023-05-06T18:34:41.866Z,100.00
2023-05-06T18:39:49.642Z,100.00
2023-05-06T18:45:02.386Z,100.00
2023-05-06T18:50:08.412Z,100.00
2023-05-06T18:55:16.835Z,100.00
2023-05-06T19:00:29.232Z,100.00
2023-05-06T19:05:45.260Z,100.00
2023-05-06T19:10:53.338Z,100.00
2023-05-06T19:16:02.654Z,100.00
2023-05-06T19:21:11.028Z,100.00
2023-05-06T19:26:21.835Z,100.00
2023-05-06T19:31:27.386Z,100.00
2023-05-06T19:36:32.794Z,100.00
2023-05-06T19:41:41.949Z,100.00
2023-05-06T19:46:47.275Z,100.00
2023-05-06T19:51:52.418Z,100.00
2023-05-06T19:57:03.258Z,100.00
2023-05-06T20:02:16.706Z,100.00
2023-05-06T20:07:25.398Z,100.00
2023-05-06T20:12:33.434Z,100.00
2023-05-06T20:17:39.592Z,100.00
2023-05-06T20:22:44.767Z,100.00
2023-05-06T20:27:53.687Z,100.00
2023-05-06T20:33:00.517Z,100.00
2023-05-06T20:38:06.726Z,100.00
2023-05-06T20:43:35.434Z,100.00
2023-05-06T20:48:41.954Z,100.00
2023-05-06T20:53:47.909Z,100.00
2023-05-06T20:58:57.682Z,100.00
2023-05-06T21:04:05.193Z,100.00
2023-05-06T21:09:10.698Z,100.00
2023-05-06T21:14:19.671Z,100.00
2023-05-06T21:19:27.188Z,100.00
2023-05-06T21:24:33.360Z,100.00
2023-05-06T21:29:42.603Z,100.00
2023-05-06T21:34:47.834Z,100.00
2023-05-06T21:39:54.393Z,100.00
2023-05-06T21:45:04.866Z,100.00
2023-05-06T21:50:11.655Z,100.00
2023-05-06T21:55:17.236Z,100.00
2023-05-06T22:00:30.006Z,100.00
2023-05-06T22:05:35.537Z,100.00
2023-05-06T22:10:44.208Z,100.00
2023-05-06T22:15:54.084Z,100.00
2023-05-06T22:20:59.980Z,100.00
2023-05-06T22:26:08.712Z,100.00
2023-05-06T22:31:19.453Z,100.00
2023-05-06T22:36:33.289Z,100.00
2023-05-06T22:41:40.392Z,100.00
2023-05-06T22:46:49.578Z,100.00
2023-05-06T22:51:57.712Z,100.00
2023-05-06T22:57:03.157Z,100.00
2023-05-06T23:02:12.013Z,100.00
2023-05-06T23:07:18.353Z,100.00
2023-05-06T23:12:25.092Z,100.00
2023-05-06T23:17:33.538Z,100.00
2023-05-06T23:22:38.637Z,100.00
2023-05-06T23:27:45.888Z,100.00
2023-05-06T23:32:53.690Z,100.00
2023-05-06T23:37:58.742Z,100.00
2023-05-06T23:43:07.362Z,100.00
2023-05-06T23:48:15.079Z,100.00
2023-05-06T23:53:20.553Z,100.00
2023-05-06T23:58:25.803Z,100.00
